sensor_id;sensor_type;location;lat;lon;timestamp;pressure;altitude;pressure_sealevel;temperature;humidity
60355;BME280;46198;51.464;-0.066;2023-12-20T00:01:56;102080.31;;;4.77;100.00
60355;BME280;46198;51.464;-0.066;2023-12-20T00:04:25;102075.56;;;4.71;100.00
60355;BME280;46198;51.464;-0.066;2023-12-20T00:06:55;102076.09;;;4.74;100.00
60355;BME280;46198;51.464;-0.066;2023-12-20T00:09:24;102074.72;;;4.70;100.00
60355;BME280;46198;51.464;-0.066;2023-12-20T00:11:54;102079.09;;;4.71;100.00
60355;BME280;46198;51.464;-0.066;2023-12-20T00:14:22;102081.78;;;4.71;100.00
60355;BME280;46198;51.464;-0.066;2023-12-20T00:16:51;102068.31;;;4.71;100.00
60355;BME280;46198;51.464;-0.066;2023-12-20T00:19:19;102075.56;;;4.71;100.00
60355;BME280;46198;51.464;-0.066;2023-12-20T00:21:50;102073.88;;;4.70;100.00
60355;BME280;46198;51.464;-0.066;2023-12-20T00:24:18;102073.69;;;4.71;100.00
60355;BME280;46198;51.464;-0.066;2023-12-20T00:26:47;102076.41;;;4.71;100.00
60355;BME280;46198;51.464;-0.066;2023-12-20T00:29:17;102073.00;;;4.69;100.00
60355;BME280;46198;51.464;-0.066;2023-12-20T00:31:46;102082.63;;;4.72;100.00
60355;BME280;46198;51.464;-0.066;2023-12-20T00:34:14;102076.69;;;4.68;100.00
60355;BME280;46198;51.464;-0.066;2023-12-20T00:36:43;102085.59;;;4.69;100.00
60355;BME280;46198;51.464;-0.066;2023-12-20T00:39:11;102084.38;;;4.63;100.00
60355;BME280;46198;51.464;-0.066;2023-12-20T00:41:40;102083.53;;;4.62;100.00
60355;BME280;46198;51.464;-0.066;2023-12-20T00:44:08;102098.81;;;4.62;100.00
60355;BME280;46198;51.464;-0.066;2023-12-20T00:46:38;102098.81;;;4.62;100.00
60355;BME280;46198;51.464;-0.066;2023-12-20T00:49:06;102089.34;;;4.58;100.00
60355;BME280;46198;51.464;-0.066;2023-12-20T00:51:37;102077.13;;;4.63;100.00
60355;BME280;46198;51.464;-0.066;2023-12-20T00:54:06;102070.53;;;4.58;100.00
60355;BME280;46198;51.464;-0.066;2023-12-20T00:56:34;102075.06;;;4.57;100.00
60355;BME280;46198;51.464;-0.066;2023-12-20T00:59:03;102074.91;;;4.59;100.00
60355;BME280;46198;51.464;-0.066;2023-12-20T01:01:31;102072.22;;;4.59;100.00
60355;BME280;46198;51.464;-0.066;2023-12-20T01:04:02;102068.00;;;4.56;100.00
60355;BME280;46198;51.464;-0.066;2023-12-20T01:06:30;102070.81;;;4.55;100.00
60355;BME280;46198;51.464;-0.066;2023-12-20T01:08:59;102047.63;;;4.54;100.00
60355;BME280;46198;51.464;-0.066;2023-12-20T01:11:27;102053.97;;;4.53;100.00
60355;BME280;46198;51.464;-0.066;2023-12-20T01:13:56;102051.84;;;4.56;100.00
60355;BME280;46198;51.464;-0.066;2023-12-20T01:16:24;102047.63;;;4.54;100.00
60355;BME280;46198;51.464;-0.066;2023-12-20T01:18:52;102050.84;;;4.57;100.00
60355;BME280;46198;51.464;-0.066;2023-12-20T01:21:23;102049.31;;;4.55;100.00
60355;BME280;46198;51.464;-0.066;2023-12-20T01:23:52;102047.84;;;4.60;100.00
60355;BME280;46198;51.464;-0.066;2023-12-20T01:26:21;102054.06;;;4.61;100.00
60355;BME280;46198;51.464;-0.066;2023-12-20T01:28:49;102046.16;;;4.59;100.00
60355;BME280;46198;51.464;-0.066;2023-12-20T01:31:18;102053.78;;;4.64;100.00
60355;BME280;46198;51.464;-0.066;2023-12-20T01:33:46;102056.31;;;4.65;100.00
60355;BME280;46198;51.464;-0.066;2023-12-20T01:36:15;102041.31;;;4.63;100.00
60355;BME280;46198;51.464;-0.066;2023-12-20T01:38:45;102052.78;;;4.65;100.00
60355;BME280;46198;51.464;-0.066;2023-12-20T01:41:14;102053.78;;;4.64;100.00
60355;BME280;46198;51.464;-0.066;2023-12-20T01:43:42;102059.72;;;4.68;100.00
60355;BME280;46198;51.464;-0.066;2023-12-20T01:46:18;102052.03;;;4.73;100.00
60355;BME280;46198;51.464;-0.066;2023-12-20T01:48:47;102048.13;;;4.67;100.00
60355;BME280;46198;51.464;-0.066;2023-12-20T01:51:16;102042.88;;;4.65;100.00
60355;BME280;46198;51.464;-0.066;2023-12-20T01:53:47;102047.25;;;4.66;100.00
60355;BME280;46198;51.464;-0.066;2023-12-20T01:56:17;102044.94;;;4.72;100.00
60355;BME280;46198;51.464;-0.066;2023-12-20T01:58:47;102037.72;;;4.72;100.00
60355;BME280;46198;51.464;-0.066;2023-12-20T02:01:17;102039.97;;;4.77;100.00
60355;BME280;46198;51.464;-0.066;2023-12-20T02:03:49;102041.94;;;4.75;100.00
60355;BME280;46198;51.464;-0.066;2023-12-20T02:06:21;102036.13;;;4.79;100.00
60355;BME280;46198;51.464;-0.066;2023-12-20T02:08:53;102023.38;;;4.81;100.00
60355;BME280;46198;51.464;-0.066;2023-12-20T02:11:22;102034.44;;;4.78;100.00
60355;BME280;46198;51.464;-0.066;2023-12-20T02:13:50;102031.88;;;4.77;100.00
60355;BME280;46198;51.464;-0.066;2023-12-20T02:16:19;102038.50;;;4.82;100.00
60355;BME280;46198;51.464;-0.066;2023-12-20T02:18:49;102027.59;;;4.84;100.00
60355;BME280;46198;51.464;-0.066;2023-12-20T02:21:18;102021.38;;;4.83;100.00
60355;BME280;46198;51.464;-0.066;2023-12-20T02:23:48;102032.66;;;4.87;100.00
60355;BME280;46198;51.464;-0.066;2023-12-20T02:26:18;102035.81;;;4.82;100.00
60355;BME280;46198;51.464;-0.066;2023-12-20T02:28:46;102037.53;;;4.83;100.00
60355;BME280;46198;51.464;-0.066;2023-12-20T02:31:15;102036.28;;;4.78;100.00
60355;BME280;46198;51.464;-0.066;2023-12-20T02:33:43;102041.19;;;4.82;100.00
60355;BME280;46198;51.464;-0.066;2023-12-20T02:36:12;102041.19;;;4.82;100.00
60355;BME280;46198;51.464;-0.066;2023-12-20T02:38:40;102034.13;;;4.81;100.00
60355;BME280;46198;51.464;-0.066;2023-12-20T02:41:10;102036.28;;;4.78;100.00
60355;BME280;46198;51.464;-0.066;2023-12-20T02:43:39;102043.50;;;4.77;100.00
60355;BME280;46198;51.464;-0.066;2023-12-20T02:46:08;102041.50;;;4.79;100.00
60355;BME280;46198;51.464;-0.066;2023-12-20T02:48:36;102038.97;;;4.78;100.00
60355;BME280;46198;51.464;-0.066;2023-12-20T02:51:05;102039.50;;;4.81;100.00
60355;BME280;46198;51.464;-0.066;2023-12-20T02:53:33;102038.19;;;4.85;100.00
60355;BME280;46198;51.464;-0.066;2023-12-20T02:56:02;102030.28;;;4.84;100.00
60355;BME280;46198;51.464;-0.066;2023-12-20T02:58:32;102023.06;;;4.84;100.00
60355;BME280;46198;51.464;-0.066;2023-12-20T03:01:01;102022.03;;;4.85;100.00
60355;BME280;46198;51.464;-0.066;2023-12-20T03:03:30;102025.44;;;4.87;100.00
60355;BME280;46198;51.464;-0.066;2023-12-20T03:05:58;102025.03;;;4.82;100.00
60355;BME280;46198;51.464;-0.066;2023-12-20T03:08:27;102038.19;;;4.85;100.00
60355;BME280;46198;51.464;-0.066;2023-12-20T03:10:59;102019.66;;;4.82;100.00
60355;BME280;46198;51.464;-0.066;2023-12-20T03:13:32;102017.81;;;4.83;100.00
60355;BME280;46198;51.464;-0.066;2023-12-20T03:16:01;102011.97;;;4.87;100.00
60355;BME280;46198;51.464;-0.066;2023-12-20T03:18:35;102016.66;;;4.85;100.00
60355;BME280;46198;51.464;-0.066;2023-12-20T03:21:04;102025.75;;;4.84;100.00
60355;BME280;46198;51.464;-0.066;2023-12-20T03:23:33;102020.69;;;4.81;100.00
60355;BME280;46198;51.464;-0.066;2023-12-20T03:26:01;102019.13;;;4.79;100.00
60355;BME280;46198;51.464;-0.066;2023-12-20T03:28:32;102017.16;;;4.81;100.00
60355;BME280;46198;51.464;-0.066;2023-12-20T03:31:01;102019.97;;;4.79;100.00
60355;BME280;46198;51.464;-0.066;2023-12-20T03:33:30;102007.22;;;4.81;100.00
60355;BME280;46198;51.464;-0.066;2023-12-20T03:36:00;102009.22;;;4.79;100.00
60355;BME280;46198;51.464;-0.066;2023-12-20T03:38:28;102010.53;;;4.75;100.00
60355;BME280;46198;51.464;-0.066;2023-12-20T03:40:57;102012.91;;;4.78;100.00
60355;BME280;46198;51.464;-0.066;2023-12-20T03:43:25;102008.91;;;4.82;100.00
60355;BME280;46198;51.464;-0.066;2023-12-20T03:45:55;102007.66;;;4.77;100.00
60355;BME280;46198;51.464;-0.066;2023-12-20T03:48:23;102008.50;;;4.77;100.00
60355;BME280;46198;51.464;-0.066;2023-12-20T03:50:52;102019.84;;;4.81;100.00
60355;BME280;46198;51.464;-0.066;2023-12-20T03:53:20;102019.59;;;4.74;100.00
60355;BME280;46198;51.464;-0.066;2023-12-20T03:55:49;102024.25;;;4.72;100.00
60355;BME280;46198;51.464;-0.066;2023-12-20T03:58:17;102025.97;;;4.73;100.00
60355;BME280;46198;51.464;-0.066;2023-12-20T04:00:46;102020.59;;;4.73;100.00
60355;BME280;46198;51.464;-0.066;2023-12-20T04:03:16;102022.88;;;4.68;100.00
60355;BME280;46198;51.464;-0.066;2023-12-20T04:05:44;102025.44;;;4.70;100.00
60355;BME280;46198;51.464;-0.066;2023-12-20T04:08:13;102023.59;;;4.70;100.00
60355;BME280;46198;51.464;-0.066;2023-12-20T04:10:41;102027.66;;;4.74;100.00
60355;BME280;46198;51.464;-0.066;2023-12-20T04:13:10;102018.28;;;4.78;100.00
60355;BME280;46198;51.464;-0.066;2023-12-20T04:15:39;102012.22;;;4.76;100.00
60355;BME280;46198;51.464;-0.066;2023-12-20T04:18:07;102005.16;;;4.75;100.00
60355;BME280;46198;51.464;-0.066;2023-12-20T04:20:37;102007.28;;;4.72;100.00
60355;BME280;46198;51.464;-0.066;2023-12-20T04:23:06;102002.06;;;4.70;100.00
60355;BME280;46198;51.464;-0.066;2023-12-20T04:25:34;101999.78;;;4.75;100.00
60355;BME280;46198;51.464;-0.066;2023-12-20T04:28:03;102001.13;;;4.79;100.00
60355;BME280;46198;51.464;-0.066;2023-12-20T04:30:33;102005.81;;;4.77;100.00
60355;BME280;46198;51.464;-0.066;2023-12-20T04:33:02;102008.38;;;4.79;100.00
60355;BME280;46198;51.464;-0.066;2023-12-20T04:35:31;102013.22;;;4.75;100.00
60355;BME280;46198;51.464;-0.066;2023-12-20T04:38:01;102011.50;;;4.74;100.00
60355;BME280;46198;51.464;-0.066;2023-12-20T04:40:29;102019.13;;;4.79;100.00
60355;BME280;46198;51.464;-0.066;2023-12-20T04:42:58;102003.69;;;4.81;100.00
60355;BME280;46198;51.464;-0.066;2023-12-20T04:45:26;102011.66;;;4.91;100.00
60355;BME280;46198;51.464;-0.066;2023-12-20T04:47:57;102013.13;;;4.85;100.00
60355;BME280;46198;51.464;-0.066;2023-12-20T04:50:26;102007.06;;;4.83;100.00
60355;BME280;46198;51.464;-0.066;2023-12-20T04:52:55;102004.53;;;4.81;100.00
60355;BME280;46198;51.464;-0.066;2023-12-20T04:55:28;101999.59;;;4.77;100.00
60355;BME280;46198;51.464;-0.066;2023-12-20T04:57:57;101991.38;;;4.78;100.00
60355;BME280;46198;51.464;-0.066;2023-12-20T05:00:25;101994.22;;;4.77;100.00
60355;BME280;46198;51.464;-0.066;2023-12-20T05:02:54;102000.75;;;4.74;100.00
60355;BME280;46198;51.464;-0.066;2023-12-20T05:05:22;102004.13;;;4.76;100.00
60355;BME280;46198;51.464;-0.066;2023-12-20T05:07:50;102007.84;;;4.75;100.00
60355;BME280;46198;51.464;-0.066;2023-12-20T05:10:19;102014.06;;;4.76;100.00
60355;BME280;46198;51.464;-0.066;2023-12-20T05:12:49;102014.19;;;4.74;100.00
60355;BME280;46198;51.464;-0.066;2023-12-20T05:15:18;102018.88;;;4.72;100.00
60355;BME280;46198;51.464;-0.066;2023-12-20T05:17:46;102020.91;;;4.70;100.00
60355;BME280;46198;51.464;-0.066;2023-12-20T05:20:15;102009.97;;;4.72;100.00
60355;BME280;46198;51.464;-0.066;2023-12-20T05:22:47;102015.66;;;4.69;100.00
60355;BME280;46198;51.464;-0.066;2023-12-20T05:25:15;102001.75;;;4.73;100.00
60355;BME280;46198;51.464;-0.066;2023-12-20T05:27:44;102001.22;;;4.70;100.00
60355;BME280;46198;51.464;-0.066;2023-12-20T05:30:14;101997.66;;;4.69;100.00
60355;BME280;46198;51.464;-0.066;2023-12-20T05:32:45;101992.16;;;4.71;100.00
60355;BME280;46198;51.464;-0.066;2023-12-20T05:35:14;101994.13;;;4.69;100.00
60355;BME280;46198;51.464;-0.066;2023-12-20T05:37:43;101986.25;;;4.67;100.00
60355;BME280;46198;51.464;-0.066;2023-12-20T05:40:12;101974.16;;;4.71;100.00
60355;BME280;46198;51.464;-0.066;2023-12-20T05:42:41;101969.09;;;4.68;100.00
60355;BME280;46198;51.464;-0.066;2023-12-20T05:45:10;101981.69;;;4.68;100.00
60355;BME280;46198;51.464;-0.066;2023-12-20T05:47:40;101975.84;;;4.72;100.00
60355;BME280;46198;51.464;-0.066;2023-12-20T05:50:09;101965.69;;;4.66;100.00
60355;BME280;46198;51.464;-0.066;2023-12-20T05:52:38;101963.38;;;4.71;100.00
60355;BME280;46198;51.464;-0.066;2023-12-20T05:55:07;101959.63;;;4.64;100.00
60355;BME280;46198;51.464;-0.066;2023-12-20T05:57:35;101960.31;;;4.66;100.00
60355;BME280;46198;51.464;-0.066;2023-12-20T06:00:04;101961.16;;;4.66;100.00
60355;BME280;46198;51.464;-0.066;2023-12-20T06:02:39;101961.00;;;4.68;100.00
60355;BME280;46198;51.464;-0.066;2023-12-20T06:05:08;101949.25;;;4.69;100.00
60355;BME280;46198;51.464;-0.066;2023-12-20T06:07:37;101952.63;;;4.71;100.00
60355;BME280;46198;51.464;-0.066;2023-12-20T06:10:06;101955.56;;;4.78;100.00
60355;BME280;46198;51.464;-0.066;2023-12-20T06:12:35;101962.47;;;4.80;100.00
60355;BME280;46198;51.464;-0.066;2023-12-20T06:15:04;101971.22;;;4.82;100.00
60355;BME280;46198;51.464;-0.066;2023-12-20T06:17:32;101967.69;;;4.82;100.00
60355;BME280;46198;51.464;-0.066;2023-12-20T06:20:04;101962.19;;;4.83;100.00
60355;BME280;46198;51.464;-0.066;2023-12-20T06:22:35;101965.00;;;4.82;100.00
60355;BME280;46198;51.464;-0.066;2023-12-20T06:25:04;101960.47;;;4.82;100.00
60355;BME280;46198;51.464;-0.066;2023-12-20T06:27:34;101964.94;;;4.92;100.00
60355;BME280;46198;51.464;-0.066;2023-12-20T06:30:03;101968.09;;;4.87;100.00
60355;BME280;46198;51.464;-0.066;2023-12-20T06:32:31;101972.63;;;4.86;100.00
60355;BME280;46198;51.464;-0.066;2023-12-20T06:35:03;101964.94;;;4.92;100.00
60355;BME280;46198;51.464;-0.066;2023-12-20T06:37:32;101972.44;;;4.88;100.00
60355;BME280;46198;51.464;-0.066;2023-12-20T06:40:00;101973.28;;;4.88;100.00
60355;BME280;46198;51.464;-0.066;2023-12-20T06:42:29;101967.31;;;4.95;100.00
60355;BME280;46198;51.464;-0.066;2023-12-20T06:45:06;101955.47;;;4.87;100.00
60355;BME280;46198;51.464;-0.066;2023-12-20T06:47:34;101959.69;;;4.90;100.00
60355;BME280;46198;51.464;-0.066;2023-12-20T06:50:05;101964.63;;;4.95;100.00
60355;BME280;46198;51.464;-0.066;2023-12-20T06:52:35;101966.94;;;4.89;100.00
60355;BME280;46198;51.464;-0.066;2023-12-20T06:55:05;101967.31;;;4.95;100.00
60355;BME280;46198;51.464;-0.066;2023-12-20T06:57:33;101961.53;;;4.89;100.00
60355;BME280;46198;51.464;-0.066;2023-12-20T07:00:04;101959.38;;;4.93;100.00
60355;BME280;46198;51.464;-0.066;2023-12-20T07:02:33;101949.06;;;4.88;100.00
60355;BME280;46198;51.464;-0.066;2023-12-20T07:05:01;101946.38;;;4.88;100.00
60355;BME280;46198;51.464;-0.066;2023-12-20T07:07:31;101948.41;;;4.86;100.00
60355;BME280;46198;51.464;-0.066;2023-12-20T07:10:00;101947.78;;;4.93;100.00
60355;BME280;46198;51.464;-0.066;2023-12-20T07:12:28;101950.16;;;4.96;100.00
60355;BME280;46198;51.464;-0.066;2023-12-20T07:14:57;101934.31;;;4.93;100.00
60355;BME280;46198;51.464;-0.066;2023-12-20T07:17:25;101936.56;;;4.97;100.00
60355;BME280;46198;51.464;-0.066;2023-12-20T07:19:54;101927.63;;;4.97;100.00
60355;BME280;46198;51.464;-0.066;2023-12-20T07:22:23;101934.00;;;4.96;100.00
60355;BME280;46198;51.464;-0.066;2023-12-20T07:24:53;101927.31;;;5.00;100.00
60355;BME280;46198;51.464;-0.066;2023-12-20T07:27:21;101921.25;;;4.98;100.00
60355;BME280;46198;51.464;-0.066;2023-12-20T07:29:54;101920.94;;;5.01;100.00
60355;BME280;46198;51.464;-0.066;2023-12-20T07:32:22;101925.63;;;4.99;100.00
60355;BME280;46198;51.464;-0.066;2023-12-20T07:34:51;101923.63;;;5.01;100.00
60355;BME280;46198;51.464;-0.066;2023-12-20T07:37:21;101929.00;;;5.01;100.00
60355;BME280;46198;51.464;-0.066;2023-12-20T07:39:50;101925.16;;;5.03;100.00
60355;BME280;46198;51.464;-0.066;2023-12-20T07:42:20;101925.00;;;5.05;100.00
60355;BME280;46198;51.464;-0.066;2023-12-20T07:44:49;101923.69;;;5.09;100.00
60355;BME280;46198;51.464;-0.066;2023-12-20T07:47:17;101925.34;;;5.10;100.00
60355;BME280;46198;51.464;-0.066;2023-12-20T07:49:48;101927.22;;;5.09;100.00
60355;BME280;46198;51.464;-0.066;2023-12-20T07:52:20;101940.66;;;5.09;100.00
60355;BME280;46198;51.464;-0.066;2023-12-20T07:54:49;101939.69;;;5.10;100.00
60355;BME280;46198;51.464;-0.066;2023-12-20T07:57:19;101933.44;;;5.10;100.00
60355;BME280;46198;51.464;-0.066;2023-12-20T07:59:51;101939.69;;;5.10;100.00
60355;BME280;46198;51.464;-0.066;2023-12-20T08:02:19;101946.28;;;5.16;100.00
60355;BME280;46198;51.464;-0.066;2023-12-20T08:04:47;101943.59;;;5.16;100.00
60355;BME280;46198;51.464;-0.066;2023-12-20T08:07:19;101949.66;;;5.18;100.00
60355;BME280;46198;51.464;-0.066;2023-12-20T08:09:47;101942.25;;;5.20;100.00
60355;BME280;46198;51.464;-0.066;2023-12-20T08:12:16;101946.34;;;5.24;100.00
60355;BME280;46198;51.464;-0.066;2023-12-20T08:14:45;101957.44;;;5.21;100.00
60355;BME280;46198;51.464;-0.066;2023-12-20T08:17:14;101953.88;;;5.21;100.00
60355;BME280;46198;51.464;-0.066;2023-12-20T08:19:45;101965.19;;;5.24;100.00
60355;BME280;46198;51.464;-0.066;2023-12-20T08:22:14;101961.50;;;5.25;100.00
60355;BME280;46198;51.464;-0.066;2023-12-20T08:24:43;101961.88;;;5.30;100.00
60355;BME280;46198;51.464;-0.066;2023-12-20T08:27:12;101962.88;;;5.29;100.00
60355;BME280;46198;51.464;-0.066;2023-12-20T08:29:40;101959.88;;;5.32;100.00
60355;BME280;46198;51.464;-0.066;2023-12-20T08:32:10;101966.47;;;5.38;100.00
60355;BME280;46198;51.464;-0.066;2023-12-20T08:34:38;101975.91;;;5.42;100.00
60355;BME280;46198;51.464;-0.066;2023-12-20T08:37:08;101972.75;;;5.47;100.00
60355;BME280;46198;51.464;-0.066;2023-12-20T08:40:03;101985.91;;;5.50;100.00
60355;BME280;46198;51.464;-0.066;2023-12-20T08:42:31;101986.75;;;5.50;100.00
60355;BME280;46198;51.464;-0.066;2023-12-20T08:45:00;101975.19;;;5.58;100.00
60355;BME280;46198;51.464;-0.066;2023-12-20T08:47:32;101978.09;;;5.65;100.00
60355;BME280;46198;51.464;-0.066;2023-12-20T08:50:01;101975.22;;;5.66;100.00
60355;BME280;46198;51.464;-0.066;2023-12-20T08:52:31;101976.63;;;5.70;100.00
60355;BME280;46198;51.464;-0.066;2023-12-20T08:55:01;101988.06;;;5.72;100.00
60355;BME280;46198;51.464;-0.066;2023-12-20T08:57:29;101976.47;;;5.80;100.00
60355;BME280;46198;51.464;-0.066;2023-12-20T08:59:58;101983.72;;;5.80;100.00
60355;BME280;46198;51.464;-0.066;2023-12-20T09:02:27;101986.78;;;5.85;100.00
60355;BME280;46198;51.464;-0.066;2023-12-20T09:04:57;101972.97;;;5.88;100.00
60355;BME280;46198;51.464;-0.066;2023-12-20T09:07:26;101963.94;;;5.97;100.00
60355;BME280;46198;51.464;-0.066;2023-12-20T09:09:57;101946.81;;;6.06;100.00
60355;BME280;46198;51.464;-0.066;2023-12-20T09:12:26;101944.81;;;6.08;100.00
60355;BME280;46198;51.464;-0.066;2023-12-20T09:14:55;101941.47;;;6.14;100.00
60355;BME280;46198;51.464;-0.066;2023-12-20T09:17:23;101934.56;;;6.20;100.00
60355;BME280;46198;51.464;-0.066;2023-12-20T09:19:52;101943.69;;;6.27;100.00
60355;BME280;46198;51.464;-0.066;2023-12-20T09:22:23;101941.16;;;6.34;100.00
60355;BME280;46198;51.464;-0.066;2023-12-20T09:24:51;101940.50;;;6.40;100.00
60355;BME280;46198;51.464;-0.066;2023-12-20T09:27:20;101946.59;;;6.42;100.00
60355;BME280;46198;51.464;-0.066;2023-12-20T09:29:49;101946.44;;;6.52;100.00
60355;BME280;46198;51.464;-0.066;2023-12-20T09:32:17;101943.56;;;6.53;100.00
60355;BME280;46198;51.464;-0.066;2023-12-20T09:34:47;101946.13;;;6.63;100.00
60355;BME280;46198;51.464;-0.066;2023-12-20T09:37:16;101957.28;;;6.76;100.00
60355;BME280;46198;51.464;-0.066;2023-12-20T09:39:46;101959.44;;;6.81;100.00
60355;BME280;46198;51.464;-0.066;2023-12-20T09:42:19;101964.56;;;6.92;100.00
60355;BME280;46198;51.464;-0.066;2023-12-20T09:44:50;101952.03;;;6.99;100.00
60355;BME280;46198;51.464;-0.066;2023-12-20T09:47:20;101950.72;;;7.03;100.00
60355;BME280;46198;51.464;-0.066;2023-12-20T09:49:51;101958.13;;;7.09;100.00
60355;BME280;46198;51.464;-0.066;2023-12-20T09:52:22;101969.75;;;7.18;100.00
60355;BME280;46198;51.464;-0.066;2023-12-20T09:54:54;101969.59;;;7.28;100.00
60355;BME280;46198;51.464;-0.066;2023-12-20T09:57:24;101976.34;;;7.32;100.00
60355;BME280;46198;51.464;-0.066;2023-12-20T09:59:52;101970.25;;;7.38;100.00
60355;BME280;46198;51.464;-0.066;2023-12-20T10:02:24;101953.03;;;7.39;100.00
60355;BME280;46198;51.464;-0.066;2023-12-20T10:04:54;101944.91;;;7.47;100.00
60355;BME280;46198;51.464;-0.066;2023-12-20T10:07:23;101950.81;;;7.51;100.00
60355;BME280;46198;51.464;-0.066;2023-12-20T10:09:54;101932.06;;;7.49;100.00
60355;BME280;46198;51.464;-0.066;2023-12-20T10:12:23;101930.19;;;7.58;100.00
60355;BME280;46198;51.464;-0.066;2023-12-20T10:14:52;101938.97;;;7.60;100.00
60355;BME280;46198;51.464;-0.066;2023-12-20T10:17:21;101945.72;;;7.64;100.00
60355;BME280;46198;51.464;-0.066;2023-12-20T10:19:50;101945.53;;;7.74;100.00
60355;BME280;46198;51.464;-0.066;2023-12-20T10:22:18;101941.91;;;7.82;100.00
60355;BME280;46198;51.464;-0.066;2023-12-20T10:24:47;101944.81;;;7.80;100.00
60355;BME280;46198;51.464;-0.066;2023-12-20T10:27:18;101951.56;;;7.84;100.00
60355;BME280;46198;51.464;-0.066;2023-12-20T10:29:47;101956.94;;;7.92;100.00
60355;BME280;46198;51.464;-0.066;2023-12-20T10:32:23;101958.63;;;7.93;100.00
60355;BME280;46198;51.464;-0.066;2023-12-20T10:34:53;101964.84;;;8.02;100.00
60355;BME280;46198;51.464;-0.066;2023-12-20T10:37:22;101949.09;;;8.06;100.00
60355;BME280;46198;51.464;-0.066;2023-12-20T10:39:53;101949.63;;;8.09;100.00
60355;BME280;46198;51.464;-0.066;2023-12-20T10:42:26;101930.13;;;8.14;100.00
60355;BME280;46198;51.464;-0.066;2023-12-20T10:44:56;101934.84;;;8.20;100.00
60355;BME280;46198;51.464;-0.066;2023-12-20T10:47:25;101916.91;;;8.19;100.00
60355;BME280;46198;51.464;-0.066;2023-12-20T10:49:54;101924.03;;;8.20;100.00
60355;BME280;46198;51.464;-0.066;2023-12-20T10:52:23;101924.16;;;8.27;100.00
60355;BME280;46198;51.464;-0.066;2023-12-20T10:54:53;101924.97;;;8.27;100.00
60355;BME280;46198;51.464;-0.066;2023-12-20T10:57:22;101924.28;;;8.33;100.00
60355;BME280;46198;51.464;-0.066;2023-12-20T10:59:53;101912.59;;;8.33;100.00
60355;BME280;46198;51.464;-0.066;2023-12-20T11:02:23;101923.44;;;8.33;100.00
60355;BME280;46198;51.464;-0.066;2023-12-20T11:05:00;101903.28;;;8.35;100.00
60355;BME280;46198;51.464;-0.066;2023-12-20T11:07:34;101898.91;;;8.34;100.00
60355;BME280;46198;51.464;-0.066;2023-12-20T11:10:14;101901.25;;;8.37;100.00
60355;BME280;46198;51.464;-0.066;2023-12-20T11:12:48;101892.63;;;8.42;100.00
60355;BME280;46198;51.464;-0.066;2023-12-20T11:15:21;101898.88;;;8.42;100.00
60355;BME280;46198;51.464;-0.066;2023-12-20T11:17:58;101874.53;;;8.42;100.00
60355;BME280;46198;51.464;-0.066;2023-12-20T11:20:36;101874.53;;;8.42;100.00
60355;BME280;46198;51.464;-0.066;2023-12-20T11:23:05;101884.63;;;8.49;100.00
60355;BME280;46198;51.464;-0.066;2023-12-20T11:25:47;101861.28;;;8.48;100.00
60355;BME280;46198;51.464;-0.066;2023-12-20T11:28:21;101860.09;;;8.50;100.00
60355;BME280;46198;51.464;-0.066;2023-12-20T11:30:52;101860.19;;;8.57;100.00
60355;BME280;46198;51.464;-0.066;2023-12-20T11:33:21;101846.56;;;8.50;100.00
60355;BME280;46198;51.464;-0.066;2023-12-20T11:35:55;101842.94;;;8.58;100.00
60355;BME280;46198;51.464;-0.066;2023-12-20T11:38:24;101836.13;;;8.62;100.00
60355;BME280;46198;51.464;-0.066;2023-12-20T11:40:54;101825.31;;;8.62;100.00
60355;BME280;46198;51.464;-0.066;2023-12-20T11:43:30;101826.28;;;8.69;100.00
60355;BME280;46198;51.464;-0.066;2023-12-20T11:46:04;101829.91;;;8.76;100.00
60355;BME280;46198;51.464;-0.066;2023-12-20T11:48:35;101826.19;;;8.77;100.00
60355;BME280;46198;51.464;-0.066;2023-12-20T11:51:09;101821.78;;;8.76;100.00
60355;BME280;46198;51.464;-0.066;2023-12-20T11:53:37;101809.38;;;8.82;100.00
60355;BME280;46198;51.464;-0.066;2023-12-20T11:56:06;101793.63;;;8.85;100.00
60355;BME280;46198;51.464;-0.066;2023-12-20T11:58:35;101775.41;;;8.94;100.00
60355;BME280;46198;51.464;-0.066;2023-12-20T12:01:05;101756.91;;;8.98;100.00
60355;BME280;46198;51.464;-0.066;2023-12-20T12:03:35;101763.06;;;9.06;100.00
60355;BME280;46198;51.464;-0.066;2023-12-20T12:06:04;101761.28;;;9.14;100.00
60355;BME280;46198;51.464;-0.066;2023-12-20T12:08:35;101764.47;;;9.17;100.00
60355;BME280;46198;51.464;-0.066;2023-12-20T12:11:03;101759.03;;;9.17;100.00
60355;BME280;46198;51.464;-0.066;2023-12-20T12:13:32;101759.41;;;9.14;100.00
60355;BME280;46198;51.464;-0.066;2023-12-20T12:16:02;101744.19;;;9.13;100.00
60355;BME280;46198;51.464;-0.066;2023-12-20T12:18:32;101748.19;;;9.17;100.00
60355;BME280;46198;51.464;-0.066;2023-12-20T12:21:02;101743.38;;;9.13;100.00
60355;BME280;46198;51.464;-0.066;2023-12-20T12:23:39;101744.88;;;9.15;100.00
60355;BME280;46198;51.464;-0.066;2023-12-20T12:26:07;101739.44;;;9.15;100.00
60355;BME280;46198;51.464;-0.066;2023-12-20T12:28:37;101747.19;;;9.18;100.00
60355;BME280;46198;51.464;-0.066;2023-12-20T12:31:08;101748.59;;;9.14;100.00
60355;BME280;46198;51.464;-0.066;2023-12-20T12:33:38;101745.13;;;9.20;100.00
60355;BME280;46198;51.464;-0.066;2023-12-20T12:36:07;101740.06;;;9.32;100.00
60355;BME280;46198;51.464;-0.066;2023-12-20T12:38:39;101734.34;;;9.42;100.00
60355;BME280;46198;51.464;-0.066;2023-12-20T12:41:12;101727.34;;;9.47;100.00
60355;BME280;46198;51.464;-0.066;2023-12-20T12:43:42;101720.69;;;9.50;100.00
60355;BME280;46198;51.464;-0.066;2023-12-20T12:46:10;101720.69;;;9.50;100.00
60355;BME280;46198;51.464;-0.066;2023-12-20T12:48:41;101717.09;;;9.64;100.00
60355;BME280;46198;51.464;-0.066;2023-12-20T12:51:13;101710.13;;;9.76;100.00
60355;BME280;46198;51.464;-0.066;2023-12-20T12:53:44;101710.59;;;9.80;100.00